sensor_id;sensor_type;location;lat;lon;timestamp;P1;durP1;ratioP1;P2;durP2;ratioP2
18520;SDS011;9390;51.244;6.982;2023-03-15T00:01:22;14.27;;;3.25;;
18520;SDS011;9390;51.244;6.982;2023-03-15T00:06:27;14.65;;;3.45;;
18520;SDS011;9390;51.244;6.982;2023-03-15T00:08:58;13.43;;;2.58;;
18520;SDS011;9390;51.244;6.982;2023-03-15T00:11:33;14.77;;;3.22;;
18520;SDS011;9390;51.244;6.982;2023-03-15T00:14:05;18.45;;;3.25;;
18520;SDS011;9390;51.244;6.982;2023-03-15T00:16:36;9.88;;;2.83;;
18520;SDS011;9390;51.244;6.982;2023-03-15T00:19:07;15.52;;;4.15;;
18520;SDS011;9390;51.244;6.982;2023-03-15T00:21:39;27.90;;;3.83;;
18520;SDS011;9390;51.244;6.982;2023-03-15T00:24:12;15.93;;;3.42;;
18520;SDS011;9390;51.244;6.982;2023-03-15T00:26:45;25.02;;;4.50;;
18520;SDS011;9390;51.244;6.982;2023-03-15T00:29:17;18.63;;;4.10;;
18520;SDS011;9390;51.244;6.982;2023-03-15T00:31:48;14.48;;;3.83;;
18520;SDS011;9390;51.244;6.982;2023-03-15T00:34:20;15.68;;;4.15;;
18520;SDS011;9390;51.244;6.982;2023-03-15T00:36:55;19.35;;;5.40;;
18520;SDS011;9390;51.244;6.982;2023-03-15T00:39:26;14.70;;;4.80;;
18520;SDS011;9390;51.244;6.982;2023-03-15T00:41:59;25.23;;;5.50;;
18520;SDS011;9390;51.244;6.982;2023-03-15T00:44:30;11.63;;;4.85;;
18520;SDS011;9390;51.244;6.982;2023-03-15T00:47:02;18.77;;;4.82;;
18520;SDS011;9390;51.244;6.982;2023-03-15T00:49:33;10.73;;;3.78;;
18520;SDS011;9390;51.244;6.982;2023-03-15T00:52:05;10.00;;;3.58;;
18520;SDS011;9390;51.244;6.982;2023-03-15T00:54:36;15.52;;;4.13;;
18520;SDS011;9390;51.244;6.982;2023-03-15T00:57:09;13.02;;;4.20;;
18520;SDS011;9390;51.244;6.982;2023-03-15T00:59:41;9.88;;;3.50;;
18520;SDS011;9390;51.244;6.982;2023-03-15T01:02:13;15.63;;;4.07;;
18520;SDS011;9390;51.244;6.982;2023-03-15T01:04:45;13.30;;;3.85;;
18520;SDS011;9390;51.244;6.982;2023-03-15T01:07:16;13.25;;;3.80;;
18520;SDS011;9390;51.244;6.982;2023-03-15T01:09:47;14.18;;;4.68;;
18520;SDS011;9390;51.244;6.982;2023-03-15T01:12:20;12.20;;;4.20;;
18520;SDS011;9390;51.244;6.982;2023-03-15T01:14:51;14.43;;;4.50;;
18520;SDS011;9390;51.244;6.982;2023-03-15T01:17:23;12.15;;;4.35;;
18520;SDS011;9390;51.244;6.982;2023-03-15T01:19:54;15.75;;;4.35;;
18520;SDS011;9390;51.244;6.982;2023-03-15T01:22:26;11.70;;;4.30;;
18520;SDS011;9390;51.244;6.982;2023-03-15T01:24:57;11.35;;;4.82;;
18520;SDS011;9390;51.244;6.982;2023-03-15T01:27:30;14.13;;;5.13;;
18520;SDS011;9390;51.244;6.982;2023-03-15T01:30:01;14.40;;;5.18;;
18520;SDS011;9390;51.244;6.982;2023-03-15T01:32:33;18.48;;;5.63;;
18520;SDS011;9390;51.244;6.982;2023-03-15T01:35:04;18.80;;;5.40;;
18520;SDS011;9390;51.244;6.982;2023-03-15T01:37:36;15.15;;;5.47;;
18520;SDS011;9390;51.244;6.982;2023-03-15T01:40:11;12.05;;;5.85;;
18520;SDS011;9390;51.244;6.982;2023-03-15T01:43:10;17.40;;;5.85;;
18520;SDS011;9390;51.244;6.982;2023-03-15T01:45:56;19.67;;;6.85;;
18520;SDS011;9390;51.244;6.982;2023-03-15T01:48:33;22.08;;;6.47;;
18520;SDS011;9390;51.244;6.982;2023-03-15T01:51:08;13.10;;;6.15;;
18520;SDS011;9390;51.244;6.982;2023-03-15T01:53:44;18.88;;;6.55;;
18520;SDS011;9390;51.244;6.982;2023-03-15T01:56:19;16.38;;;6.43;;
18520;SDS011;9390;51.244;6.982;2023-03-15T01:58:53;19.38;;;6.68;;
18520;SDS011;9390;51.244;6.982;2023-03-15T02:01:25;20.15;;;8.77;;
18520;SDS011;9390;51.244;6.982;2023-03-15T02:03:58;18.40;;;7.65;;
18520;SDS011;9390;51.244;6.982;2023-03-15T02:06:32;18.50;;;7.93;;
18520;SDS011;9390;51.244;6.982;2023-03-15T02:09:05;23.33;;;8.02;;
18520;SDS011;9390;51.244;6.982;2023-03-15T02:11:43;17.35;;;7.97;;
18520;SDS011;9390;51.244;6.982;2023-03-15T02:14:19;22.15;;;8.95;;
18520;SDS011;9390;51.244;6.982;2023-03-15T02:16:51;26.00;;;10.32;;
18520;SDS011;9390;51.244;6.982;2023-03-15T02:19:26;28.25;;;10.40;;
18520;SDS011;9390;51.244;6.982;2023-03-15T02:22:09;27.02;;;10.77;;
18520;SDS011;9390;51.244;6.982;2023-03-15T02:24:46;27.55;;;10.18;;
18520;SDS011;9390;51.244;6.982;2023-03-15T02:27:25;30.70;;;11.43;;
18520;SDS011;9390;51.244;6.982;2023-03-15T02:29:58;25.85;;;11.48;;
18520;SDS011;9390;51.244;6.982;2023-03-15T02:32:32;25.77;;;10.75;;
18520;SDS011;9390;51.244;6.982;2023-03-15T02:35:04;37.60;;;11.38;;
18520;SDS011;9390;51.244;6.982;2023-03-15T02:37:35;33.03;;;12.90;;
18520;SDS011;9390;51.244;6.982;2023-03-15T02:40:10;26.88;;;11.95;;
18520;SDS011;9390;51.244;6.982;2023-03-15T02:42:51;26.70;;;13.00;;
18520;SDS011;9390;51.244;6.982;2023-03-15T02:45:24;27.27;;;12.23;;
18520;SDS011;9390;51.244;6.982;2023-03-15T02:47:57;38.58;;;13.68;;
18520;SDS011;9390;51.244;6.982;2023-03-15T02:50:29;31.10;;;13.85;;
18520;SDS011;9390;51.244;6.982;2023-03-15T02:53:01;37.45;;;15.07;;
18520;SDS011;9390;51.244;6.982;2023-03-15T02:55:32;32.95;;;14.88;;
18520;SDS011;9390;51.244;6.982;2023-03-15T02:58:05;31.00;;;13.88;;
18520;SDS011;9390;51.244;6.982;2023-03-15T03:00:37;37.35;;;14.43;;
18520;SDS011;9390;51.244;6.982;2023-03-15T03:03:08;31.13;;;13.82;;
18520;SDS011;9390;51.244;6.982;2023-03-15T03:05:40;36.22;;;15.10;;
18520;SDS011;9390;51.244;6.982;2023-03-15T03:08:12;35.28;;;14.48;;
18520;SDS011;9390;51.244;6.982;2023-03-15T03:10:45;31.83;;;12.63;;
18520;SDS011;9390;51.244;6.982;2023-03-15T03:13:18;31.77;;;12.57;;
18520;SDS011;9390;51.244;6.982;2023-03-15T03:15:49;25.73;;;10.18;;
18520;SDS011;9390;51.244;6.982;2023-03-15T03:18:27;21.75;;;9.50;;
18520;SDS011;9390;51.244;6.982;2023-03-15T03:20:59;20.17;;;8.70;;
18520;SDS011;9390;51.244;6.982;2023-03-15T03:23:33;17.95;;;8.20;;
18520;SDS011;9390;51.244;6.982;2023-03-15T03:26:11;15.38;;;8.15;;
18520;SDS011;9390;51.244;6.982;2023-03-15T03:28:46;20.13;;;8.40;;
18520;SDS011;9390;51.244;6.982;2023-03-15T03:31:19;20.92;;;8.68;;
18520;SDS011;9390;51.244;6.982;2023-03-15T03:33:53;17.05;;;8.93;;
18520;SDS011;9390;51.244;6.982;2023-03-15T03:36:25;20.77;;;9.48;;
18520;SDS011;9390;51.244;6.982;2023-03-15T03:38:57;20.50;;;10.00;;
18520;SDS011;9390;51.244;6.982;2023-03-15T03:41:28;21.45;;;9.55;;
18520;SDS011;9390;51.244;6.982;2023-03-15T03:44:01;24.80;;;11.13;;
18520;SDS011;9390;51.244;6.982;2023-03-15T03:46:32;24.42;;;10.75;;
18520;SDS011;9390;51.244;6.982;2023-03-15T03:49:05;21.75;;;10.98;;
18520;SDS011;9390;51.244;6.982;2023-03-15T03:51:36;22.38;;;10.43;;
18520;SDS011;9390;51.244;6.982;2023-03-15T03:54:07;21.48;;;10.27;;
18520;SDS011;9390;51.244;6.982;2023-03-15T03:56:39;24.08;;;10.63;;
18520;SDS011;9390;51.244;6.982;2023-03-15T03:59:12;21.38;;;10.05;;
18520;SDS011;9390;51.244;6.982;2023-03-15T04:01:43;21.85;;;11.25;;
18520;SDS011;9390;51.244;6.982;2023-03-15T04:04:15;22.15;;;10.43;;
18520;SDS011;9390;51.244;6.982;2023-03-15T04:06:46;28.25;;;12.13;;
18520;SDS011;9390;51.244;6.982;2023-03-15T04:09:19;25.00;;;11.52;;
18520;SDS011;9390;51.244;6.982;2023-03-15T04:11:53;23.45;;;11.68;;
18520;SDS011;9390;51.244;6.982;2023-03-15T04:14:26;25.80;;;12.20;;
18520;SDS011;9390;51.244;6.982;2023-03-15T04:16:57;26.50;;;12.00;;
18520;SDS011;9390;51.244;6.982;2023-03-15T04:19:32;28.05;;;12.23;;
18520;SDS011;9390;51.244;6.982;2023-03-15T04:22:04;24.08;;;12.18;;
18520;SDS011;9390;51.244;6.982;2023-03-15T04:24:36;23.60;;;11.43;;
18520;SDS011;9390;51.244;6.982;2023-03-15T04:27:08;30.77;;;12.03;;
18520;SDS011;9390;51.244;6.982;2023-03-15T04:29:44;25.38;;;12.85;;
18520;SDS011;9390;51.244;6.982;2023-03-15T04:34:48;27.08;;;12.88;;
18520;SDS011;9390;51.244;6.982;2023-03-15T04:37:20;24.15;;;12.23;;
18520;SDS011;9390;51.244;6.982;2023-03-15T04:39:52;27.33;;;12.43;;
18520;SDS011;9390;51.244;6.982;2023-03-15T04:42:23;28.88;;;12.23;;
18520;SDS011;9390;51.244;6.982;2023-03-15T04:44:56;33.70;;;12.48;;
18520;SDS011;9390;51.244;6.982;2023-03-15T04:47:28;31.98;;;13.32;;
18520;SDS011;9390;51.244;6.982;2023-03-15T04:50:00;26.75;;;12.20;;
18520;SDS011;9390;51.244;6.982;2023-03-15T04:52:31;23.90;;;11.90;;
18520;SDS011;9390;51.244;6.982;2023-03-15T04:55:03;32.53;;;12.95;;
18520;SDS011;9390;51.244;6.982;2023-03-15T04:57:34;30.50;;;12.27;;
18520;SDS011;9390;51.244;6.982;2023-03-15T05:00:08;29.73;;;12.93;;
18520;SDS011;9390;51.244;6.982;2023-03-15T05:02:41;31.83;;;12.95;;
18520;SDS011;9390;51.244;6.982;2023-03-15T05:05:13;35.03;;;14.55;;
18520;SDS011;9390;51.244;6.982;2023-03-15T05:07:44;34.85;;;15.13;;
18520;SDS011;9390;51.244;6.982;2023-03-15T05:10:16;39.58;;;14.82;;
18520;SDS011;9390;51.244;6.982;2023-03-15T05:12:48;37.90;;;15.00;;
18520;SDS011;9390;51.244;6.982;2023-03-15T05:15:21;35.50;;;15.13;;
18520;SDS011;9390;51.244;6.982;2023-03-15T05:17:52;41.95;;;15.93;;
18520;SDS011;9390;51.244;6.982;2023-03-15T05:20:25;46.17;;;15.63;;
18520;SDS011;9390;51.244;6.982;2023-03-15T05:22:56;43.05;;;16.13;;
18520;SDS011;9390;51.244;6.982;2023-03-15T05:25:27;44.55;;;15.35;;
18520;SDS011;9390;51.244;6.982;2023-03-15T05:27:59;37.58;;;15.85;;
18520;SDS011;9390;51.244;6.982;2023-03-15T05:30:37;40.00;;;16.52;;
18520;SDS011;9390;51.244;6.982;2023-03-15T05:33:10;42.45;;;15.90;;
18520;SDS011;9390;51.244;6.982;2023-03-15T05:35:42;46.08;;;16.38;;
18520;SDS011;9390;51.244;6.982;2023-03-15T05:38:14;43.20;;;16.48;;
18520;SDS011;9390;51.244;6.982;2023-03-15T05:40:45;38.00;;;16.35;;
18520;SDS011;9390;51.244;6.982;2023-03-15T05:43:17;45.13;;;17.02;;
18520;SDS011;9390;51.244;6.982;2023-03-15T05:45:50;44.90;;;17.73;;
18520;SDS011;9390;51.244;6.982;2023-03-15T05:48:21;42.72;;;17.42;;
18520;SDS011;9390;51.244;6.982;2023-03-15T05:50:53;42.28;;;16.77;;
18520;SDS011;9390;51.244;6.982;2023-03-15T05:53:24;44.97;;;16.75;;
18520;SDS011;9390;51.244;6.982;2023-03-15T05:55:55;44.95;;;17.05;;
18520;SDS011;9390;51.244;6.982;2023-03-15T05:58:27;49.50;;;17.55;;
18520;SDS011;9390;51.244;6.982;2023-03-15T06:01:00;39.75;;;16.65;;
18520;SDS011;9390;51.244;6.982;2023-03-15T06:03:33;42.67;;;16.73;;
18520;SDS011;9390;51.244;6.982;2023-03-15T06:06:04;43.75;;;17.55;;
18520;SDS011;9390;51.244;6.982;2023-03-15T06:08:36;42.60;;;17.15;;
18520;SDS011;9390;51.244;6.982;2023-03-15T06:11:07;43.15;;;17.60;;
18520;SDS011;9390;51.244;6.982;2023-03-15T06:13:38;45.88;;;17.85;;
18520;SDS011;9390;51.244;6.982;2023-03-15T06:16:11;52.60;;;17.70;;
18520;SDS011;9390;51.244;6.982;2023-03-15T06:18:42;39.63;;;15.75;;
18520;SDS011;9390;51.244;6.982;2023-03-15T06:21:14;45.03;;;17.17;;
18520;SDS011;9390;51.244;6.982;2023-03-15T06:23:45;41.60;;;16.10;;
18520;SDS011;9390;51.244;6.982;2023-03-15T06:26:16;40.65;;;15.45;;
18520;SDS011;9390;51.244;6.982;2023-03-15T06:28:48;44.72;;;14.98;;
18520;SDS011;9390;51.244;6.982;2023-03-15T06:31:21;46.10;;;14.90;;
18520;SDS011;9390;51.244;6.982;2023-03-15T06:33:52;50.28;;;16.10;;
18520;SDS011;9390;51.244;6.982;2023-03-15T06:36:24;50.63;;;16.65;;
18520;SDS011;9390;51.244;6.982;2023-03-15T06:38:55;50.30;;;17.05;;
18520;SDS011;9390;51.244;6.982;2023-03-15T06:41:26;53.65;;;17.90;;
18520;SDS011;9390;51.244;6.982;2023-03-15T06:43:58;51.28;;;18.90;;
18520;SDS011;9390;51.244;6.982;2023-03-15T06:46:31;51.22;;;17.73;;
18520;SDS011;9390;51.244;6.982;2023-03-15T06:49:02;59.65;;;20.38;;
18520;SDS011;9390;51.244;6.982;2023-03-15T06:51:34;54.50;;;18.42;;
18520;SDS011;9390;51.244;6.982;2023-03-15T06:54:05;58.53;;;18.45;;
18520;SDS011;9390;51.244;6.982;2023-03-15T06:56:36;59.22;;;19.02;;
18520;SDS011;9390;51.244;6.982;2023-03-15T06:59:08;70.22;;;19.98;;
18520;SDS011;9390;51.244;6.982;2023-03-15T07:01:41;60.75;;;20.23;;
18520;SDS011;9390;51.244;6.982;2023-03-15T07:04:13;63.90;;;20.63;;
18520;SDS011;9390;51.244;6.982;2023-03-15T07:06:44;64.90;;;20.27;;
18520;SDS011;9390;51.244;6.982;2023-03-15T07:09:15;78.78;;;24.15;;
18520;SDS011;9390;51.244;6.982;2023-03-15T07:11:47;76.72;;;23.65;;
18520;SDS011;9390;51.244;6.982;2023-03-15T07:14:18;81.72;;;23.33;;
18520;SDS011;9390;51.244;6.982;2023-03-15T07:16:52;80.25;;;25.30;;
18520;SDS011;9390;51.244;6.982;2023-03-15T07:19:23;82.97;;;24.60;;
18520;SDS011;9390;51.244;6.982;2023-03-15T07:21:55;77.10;;;23.55;;
18520;SDS011;9390;51.244;6.982;2023-03-15T07:24:26;91.97;;;26.63;;
18520;SDS011;9390;51.244;6.982;2023-03-15T07:26:58;72.40;;;24.00;;
18520;SDS011;9390;51.244;6.982;2023-03-15T07:29:29;80.13;;;24.92;;
18520;SDS011;9390;51.244;6.982;2023-03-15T07:32:02;84.03;;;23.65;;
18520;SDS011;9390;51.244;6.982;2023-03-15T07:37:05;64.03;;;22.05;;
18520;SDS011;9390;51.244;6.982;2023-03-15T07:39:36;65.43;;;20.17;;
18520;SDS011;9390;51.244;6.982;2023-03-15T07:42:08;64.20;;;20.42;;
18520;SDS011;9390;51.244;6.982;2023-03-15T07:44:39;63.17;;;19.50;;
18520;SDS011;9390;51.244;6.982;2023-03-15T07:47:12;61.78;;;19.45;;
18520;SDS011;9390;51.244;6.982;2023-03-15T07:49:43;60.53;;;20.30;;
18520;SDS011;9390;51.244;6.982;2023-03-15T07:52:15;59.72;;;19.88;;
18520;SDS011;9390;51.244;6.982;2023-03-15T07:54:47;61.78;;;22.30;;
18520;SDS011;9390;51.244;6.982;2023-03-15T07:57:18;65.30;;;22.42;;
18520;SDS011;9390;51.244;6.982;2023-03-15T07:59:49;76.80;;;27.05;;
18520;SDS011;9390;51.244;6.982;2023-03-15T08:02:23;94.47;;;29.77;;
18520;SDS011;9390;51.244;6.982;2023-03-15T08:04:55;71.43;;;23.50;;
18520;SDS011;9390;51.244;6.982;2023-03-15T08:07:27;58.78;;;21.20;;
18520;SDS011;9390;51.244;6.982;2023-03-15T08:09:59;55.95;;;17.35;;
18520;SDS011;9390;51.244;6.982;2023-03-15T08:12:30;96.00;;;35.92;;
18520;SDS011;9390;51.244;6.982;2023-03-15T08:15:05;60.85;;;21.55;;
18520;SDS011;9390;51.244;6.982;2023-03-15T08:17:39;59.42;;;20.95;;
18520;SDS011;9390;51.244;6.982;2023-03-15T08:20:11;59.70;;;19.58;;
18520;SDS011;9390;51.244;6.982;2023-03-15T08:22:43;57.33;;;20.52;;
18520;SDS011;9390;51.244;6.982;2023-03-15T08:25:16;45.33;;;18.52;;
18520;SDS011;9390;51.244;6.982;2023-03-15T08:27:49;45.88;;;19.02;;
18520;SDS011;9390;51.244;6.982;2023-03-15T08:30:21;50.65;;;18.17;;
18520;SDS011;9390;51.244;6.982;2023-03-15T08:32:54;37.70;;;16.30;;
18520;SDS011;9390;51.244;6.982;2023-03-15T08:35:25;40.10;;;18.85;;
18520;SDS011;9390;51.244;6.982;2023-03-15T08:37:57;31.83;;;15.13;;
18520;SDS011;9390;51.244;6.982;2023-03-15T08:40:29;32.60;;;14.27;;
18520;SDS011;9390;51.244;6.982;2023-03-15T08:43:00;27.33;;;13.60;;
18520;SDS011;9390;51.244;6.982;2023-03-15T08:45:32;30.13;;;13.32;;
18520;SDS011;9390;51.244;6.982;2023-03-15T08:48:05;24.13;;;13.38;;
18520;SDS011;9390;51.244;6.982;2023-03-15T08:50:36;25.33;;;12.10;;
18520;SDS011;9390;51.244;6.982;2023-03-15T08:53:08;28.95;;;14.23;;
18520;SDS011;9390;51.244;6.982;2023-03-15T08:55:39;30.33;;;14.60;;
18520;SDS011;9390;51.244;6.982;2023-03-15T08:58:11;31.88;;;13.10;;
18520;SDS011;9390;51.244;6.982;2023-03-15T09:00:43;30.15;;;13.45;;
18520;SDS011;9390;51.244;6.982;2023-03-15T09:03:16;29.02;;;13.60;;
18520;SDS011;9390;51.244;6.982;2023-03-15T09:05:48;38.20;;;16.48;;
18520;SDS011;9390;51.244;6.982;2023-03-15T09:08:19;32.10;;;15.40;;
18520;SDS011;9390;51.244;6.982;2023-03-15T09:10:52;29.90;;;14.23;;
18520;SDS011;9390;51.244;6.982;2023-03-15T09:15:55;33.72;;;14.07;;
18520;SDS011;9390;51.244;6.982;2023-03-15T09:18:29;29.88;;;13.02;;
18520;SDS011;9390;51.244;6.982;2023-03-15T09:23:31;32.10;;;12.13;;
18520;SDS011;9390;51.244;6.982;2023-03-15T09:26:03;24.65;;;10.38;;
18520;SDS011;9390;51.244;6.982;2023-03-15T09:28:37;27.48;;;11.50;;
18520;SDS011;9390;51.244;6.982;2023-03-15T09:31:09;23.45;;;11.68;;
18520;SDS011;9390;51.244;6.982;2023-03-15T09:33:42;28.02;;;11.73;;
18520;SDS011;9390;51.244;6.982;2023-03-15T09:36:15;30.33;;;12.95;;
18520;SDS011;9390;51.244;6.982;2023-03-15T09:38:46;31.25;;;12.82;;
18520;SDS011;9390;51.244;6.982;2023-03-15T09:41:18;27.48;;;12.75;;
18520;SDS011;9390;51.244;6.982;2023-03-15T09:43:58;28.63;;;12.20;;
18520;SDS011;9390;51.244;6.982;2023-03-15T09:46:38;24.08;;;11.68;;
18520;SDS011;9390;51.244;6.982;2023-03-15T09:49:15;23.33;;;11.07;;
18520;SDS011;9390;51.244;6.982;2023-03-15T09:51:50;26.33;;;12.48;;
18520;SDS011;9390;51.244;6.982;2023-03-15T09:54:25;26.13;;;12.80;;
18520;SDS011;9390;51.244;6.982;2023-03-15T09:59:31;31.38;;;11.65;;
18520;SDS011;9390;51.244;6.982;2023-03-15T10:04:43;24.95;;;10.05;;
18520;SDS011;9390;51.244;6.982;2023-03-15T10:07:16;23.65;;;12.15;;
18520;SDS011;9390;51.244;6.982;2023-03-15T10:09:47;25.95;;;12.05;;
18520;SDS011;9390;51.244;6.982;2023-03-15T10:12:20;30.95;;;12.07;;
18520;SDS011;9390;51.244;6.982;2023-03-15T10:15:04;23.42;;;11.25;;
18520;SDS011;9390;51.244;6.982;2023-03-15T10:17:47;24.73;;;11.45;;
18520;SDS011;9390;51.244;6.982;2023-03-15T10:20:28;17.88;;;8.40;;
18520;SDS011;9390;51.244;6.982;2023-03-15T10:23:04;16.02;;;7.40;;
18520;SDS011;9390;51.244;6.982;2023-03-15T10:25:38;25.52;;;8.35;;
18520;SDS011;9390;51.244;6.982;2023-03-15T10:28:11;19.13;;;7.45;;
18520;SDS011;9390;51.244;6.982;2023-03-15T10:30:45;17.35;;;7.28;;
18520;SDS011;9390;51.244;6.982;2023-03-15T10:33:20;23.73;;;7.88;;
18520;SDS011;9390;51.244;6.982;2023-03-15T10:35:57;19.90;;;6.90;;
18520;SDS011;9390;51.244;6.982;2023-03-15T10:38:29;19.55;;;7.80;;
18520;SDS011;9390;51.244;6.982;2023-03-15T10:41:00;17.83;;;7.78;;
18520;SDS011;9390;51.244;6.982;2023-03-15T10:43:36;15.63;;;7.15;;
18520;SDS011;9390;51.244;6.982;2023-03-15T10:46:09;23.90;;;7.68;;
18520;SDS011;9390;51.244;6.982;2023-03-15T10:48:50;16.35;;;7.90;;
18520;SDS011;9390;51.244;6.982;2023-03-15T10:51:25;19.60;;;7.82;;
18520;SDS011;9390;51.244;6.982;2023-03-15T10:53:58;18.77;;;7.25;;
18520;SDS011;9390;51.244;6.982;2023-03-15T10:56:35;26.20;;;8.20;;
18520;SDS011;9390;51.244;6.982;2023-03-15T10:59:13;14.27;;;6.50;;
18520;SDS011;9390;51.244;6.982;2023-03-15T11:01:47;16.48;;;7.43;;
18520;SDS011;9390;51.244;6.982;2023-03-15T11:04:19;15.23;;;6.25;;
18520;SDS011;9390;51.244;6.982;2023-03-15T11:06:59;39.90;;;9.35;;
18520;SDS011;9390;51.244;6.982;2023-03-15T11:09:37;15.50;;;6.55;;
18520;SDS011;9390;51.244;6.982;2023-03-15T11:12:11;16.60;;;5.45;;
18520;SDS011;9390;51.244;6.982;2023-03-15T11:14:47;14.68;;;5.85;;
18520;SDS011;9390;51.244;6.982;2023-03-15T11:17:21;14.05;;;4.97;;
18520;SDS011;9390;51.244;6.982;2023-03-15T11:19:55;15.85;;;5.07;;
18520;SDS011;9390;51.244;6.982;2023-03-15T11:22:29;13.35;;;4.78;;
18520;SDS011;9390;51.244;6.982;2023-03-15T11:25:02;13.48;;;4.57;;
18520;SDS011;9390;51.244;6.982;2023-03-15T11:27:34;11.45;;;4.82;;
18520;SDS011;9390;51.244;6.982;2023-03-15T11:30:11;13.32;;;4.50;;
18520;SDS011;9390;51.244;6.982;2023-03-15T11:32:44;16.83;;;4.50;;
18520;SDS011;9390;51.244;6.982;2023-03-15T11:35:18;14.85;;;4.20;;
18520;SDS011;9390;51.244;6.982;2023-03-15T11:38:08;7.18;;;3.50;;
18520;SDS011;9390;51.244;6.982;2023-03-15T11:40:42;11.63;;;3.40;;
18520;SDS011;9390;51.244;6.982;2023-03-15T11:43:16;8.77;;;3.30;;
18520;SDS011;9390;51.244;6.982;2023-03-15T11:45:50;9.07;;;2.55;;
18520;SDS011;9390;51.244;6.982;2023-03-15T11:48:26;7.88;;;2.25;;
18520;SDS011;9390;51.244;6.982;2023-03-15T11:50:59;8.50;;;2.70;;
18520;SDS011;9390;51.244;6.982;2023-03-15T11:53:33;8.03;;;2.40;;
18520;SDS011;9390;51.244;6.982;2023-03-15T11:56:19;9.68;;;2.40;;
18520;SDS011;9390;51.244;6.982;2023-03-15T11:58:59;11.82;;;3.10;;
18520;SDS011;9390;51.244;6.982;2023-03-15T12:01:35;11.77;;;3.63;;
18520;SDS011;9390;51.244;6.982;2023-03-15T12:07:27;11.02;;;3.40;;
18520;SDS011;9390;51.244;6.982;2023-03-15T12:10:23;10.27;;;3.00;;
18520;SDS011;9390;51.244;6.982;2023-03-15T12:13:15;12.07;;;3.92;;
18520;SDS011;9390;51.244;6.982;2023-03-15T12:15:48;11.80;;;4.53;;
18520;SDS011;9390;51.244;6.982;2023-03-15T12:18:21;13.02;;;3.65;;
18520;SDS011;9390;51.244;6.982;2023-03-15T12:21:04;10.38;;;3.25;;
18520;SDS011;9390;51.244;6.982;2023-03-15T12:23:42;9.70;;;3.58;;
18520;SDS011;9390;51.244;6.982;2023-03-15T12:26:22;6.93;;;2.85;;
18520;SDS011;9390;51.244;6.982;2023-03-15T12:29:04;10.70;;;3.17;;
18520;SDS011;9390;51.244;6.982;2023-03-15T12:31:41;9.63;;;2.72;;
18520;SDS011;9390;51.244;6.982;2023-03-15T12:34:14;10.18;;;3.53;;
18520;SDS011;9390;51.244;6.982;2023-03-15T12:36:55;11.57;;;2.92;;
18520;SDS011;9390;51.244;6.982;2023-03-15T12:39:35;13.75;;;3.40;;
18520;SDS011;9390;51.244;6.982;2023-03-15T12:42:14;12.38;;;3.72;;
18520;SDS011;9390;51.244;6.982;2023-03-15T12:45:39;9.65;;;2.92;;
18520;SDS011;9390;51.244;6.982;2023-03-15T12:48:19;7.20;;;2.42;;
18520;SDS011;9390;51.244;6.982;2023-03-15T12:50:53;10.27;;;2.60;;
18520;SDS011;9390;51.244;6.982;2023-03-15T12:53:38;11.02;;;2.58;;
18520;SDS011;9390;51.244;6.982;2023-03-15T12:59:19;6.78;;;2.40;;
18520;SDS011;9390;51.244;6.982;2023-03-15T13:01:55;9.75;;;2.08;;
18520;SDS011;9390;51.244;6.982;2023-03-15T13:04:27;12.88;;;2.53;;
18520;SDS011;9390;51.244;6.982;2023-03-15T13:07:03;9.23;;;2.47;;
18520;SDS011;9390;51.244;6.982;2023-03-15T13:09:46;9.20;;;2.65;;
18520;SDS011;9390;51.244;6.982;2023-03-15T13:12:23;9.88;;;2.70;;
18520;SDS011;9390;51.244;6.982;2023-03-15T13:14:58;9.50;;;2.40;;
18520;SDS011;9390;51.244;6.982;2023-03-15T13:17:34;10.45;;;2.60;;
18520;SDS011;9390;51.244;6.982;2023-03-15T13:20:15;8.40;;;2.15;;
18520;SDS011;9390;51.244;6.982;2023-03-15T13:22:54;8.55;;;2.40;;
18520;SDS011;9390;51.244;6.982;2023-03-15T13:25:33;8.18;;;2.30;;
18520;SDS011;9390;51.244;6.982;2023-03-15T13:28:10;9.65;;;2.53;;
18520;SDS011;9390;51.244;6.982;2023-03-15T13:30:47;5.95;;;2.00;;
18520;SDS011;9390;51.244;6.982;2023-03-15T13:33:22;8.50;;;2.20;;
18520;SDS011;9390;51.244;6.982;2023-03-15T13:35:55;6.28;;;1.92;;
18520;SDS011;9390;51.244;6.982;2023-03-15T13:38:30;5.63;;;2.15;;
18520;SDS011;9390;51.244;6.982;2023-03-15T13:41:03;6.70;;;1.73;;
18520;SDS011;9390;51.244;6.982;2023-03-15T13:43:36;5.10;;;1.60;;
18520;SDS011;9390;51.244;6.982;2023-03-15T13:48:41;6.03;;;1.80;;
18520;SDS011;9390;51.244;6.982;2023-03-15T13:51:16;7.28;;;1.63;;
18520;SDS011;9390;51.244;6.982;2023-03-15T13:53:52;7.22;;;1.55;;
18520;SDS011;9390;51.244;6.982;2023-03-15T13:56:26;5.88;;;1.70;;
18520;SDS011;9390;51.244;6.982;2023-03-15T13:58:59;7.50;;;2.13;;
18520;SDS011;9390;51.244;6.982;2023-03-15T14:01:36;6.03;;;1.63;;
18520;SDS011;9390;51.244;6.982;2023-03-15T14:04:12;8.68;;;1.60;;
18520;SDS011;9390;51.244;6.982;2023-03-15T14:06:46;5.15;;;1.65;;
18520;SDS011;9390;51.244;6.982;2023-03-15T14:09:19;7.47;;;1.80;;
18520;SDS011;9390;51.244;6.982;2023-03-15T14:12:02;8.85;;;1.60;;
18520;SDS011;9390;51.244;6.982;2023-03-15T14:14:36;7.90;;;1.38;;
18520;SDS011;9390;51.244;6.982;2023-03-15T14:17:17;6.22;;;1.67;;
18520;SDS011;9390;51.244;6.982;2023-03-15T14:19:53;6.13;;;1.90;;
18520;SDS011;9390;51.244;6.982;2023-03-15T14:22:25;7.85;;;1.60;;
18520;SDS011;9390;51.244;6.982;2023-03-15T14:24:57;5.55;;;1.52;;
18520;SDS011;9390;51.244;6.982;2023-03-15T14:27:28;6.85;;;1.70;;
18520;SDS011;9390;51.244;6.982;2023-03-15T14:30:00;3.92;;;1.42;;
18520;SDS011;9390;51.244;6.982;2023-03-15T14:32:35;3.95;;;1.40;;
18520;SDS011;9390;51.244;6.982;2023-03-15T14:35:17;5.07;;;1.50;;
18520;SDS011;9390;51.244;6.982;2023-03-15T14:40:31;13.45;;;1.55;;
18520;SDS011;9390;51.244;6.982;2023-03-15T14:43:05;5.65;;;1.70;;
18520;SDS011;9390;51.244;6.982;2023-03-15T14:48:12;3.90;;;1.52;;
18520;SDS011;9390;51.244;6.982;2023-03-15T14:50:44;7.05;;;1.80;;
18520;SDS011;9390;51.244;6.982;2023-03-15T14:53:16;6.15;;;1.58;;
18520;SDS011;9390;51.244;6.982;2023-03-15T14:55:49;7.30;;;1.55;;
18520;SDS011;9390;51.244;6.982;2023-03-15T14:58:21;6.25;;;1.60;;
18520;SDS011;9390;51.244;6.982;2023-03-15T15:00:53;8.75;;;1.75;;
18520;SDS011;9390;51.244;6.982;2023-03-15T15:03:30;9.38;;;1.85;;
18520;SDS011;9390;51.244;6.982;2023-03-15T15:06:03;3.08;;;1.52;;
18520;SDS011;9390;51.244;6.982;2023-03-15T15:08:35;5.72;;;1.30;;
18520;SDS011;9390;51.244;6.982;2023-03-15T15:11:09;6.80;;;1.38;;
18520;SDS011;9390;51.244;6.982;2023-03-15T15:13:40;7.93;;;1.70;;
18520;SDS011;9390;51.244;6.982;2023-03-15T15:16:11;7.70;;;1.70;;
18520;SDS011;9390;51.244;6.982;2023-03-15T15:18:44;5.63;;;1.55;;
18520;SDS011;9390;51.244;6.982;2023-03-15T15:21:17;6.05;;;1.50;;
18520;SDS011;9390;51.244;6.982;2023-03-15T15:23:50;5.93;;;1.70;;
18520;SDS011;9390;51.244;6.982;2023-03-15T15:26:22;6.80;;;1.85;;
18520;SDS011;9390;51.244;6.982;2023-03-15T15:28:55;5.07;;;1.73;;
18520;SDS011;9390;51.244;6.982;2023-03-15T15:31:27;8.55;;;2.15;;
18520;SDS011;9390;51.244;6.982;2023-03-15T15:34:04;5.75;;;1.65;;
18520;SDS011;9390;51.244;6.982;2023-03-15T15:36:36;8.48;;;2.20;;
18520;SDS011;9390;51.244;6.982;2023-03-15T15:41:43;6.35;;;2.85;;
18520;SDS011;9390;51.244;6.982;2023-03-15T15:44:15;5.15;;;2.55;;
18520;SDS011;9390;51.244;6.982;2023-03-15T15:46:48;7.97;;;2.35;;
18520;SDS011;9390;51.244;6.982;2023-03-15T15:49:20;3.50;;;1.52;;
18520;SDS011;9390;51.244;6.982;2023-03-15T15:51:52;5.80;;;1.77;;
18520;SDS011;9390;51.244;6.982;2023-03-15T15:54:24;9.27;;;1.80;;
18520;SDS011;9390;51.244;6.982;2023-03-15T15:56:56;6.78;;;2.13;;